This is the latest recevied weather packets stored in our database for station/object KJ4RDP-13. If no packets are shown the sender has not sent any weather packets the latest 1 day(s).
| Time | Temp. | Humidity | Pressure | Rain* | Wind** | Luminosity | Snow |
|---|---|---|---|---|---|---|---|
| 1778017979 | 21.67° C | 52% | 1013.8 hPa | 0 mm | 0.45 m/s, 244° | 103 W/m² | - |
| 1778017676 | 21.11° C | 50% | 1013.8 hPa | 0 mm | 1.34 m/s, 291° | 343 W/m² | - |
| 1778017374 | 21.67° C | 53% | 1013.8 hPa | 0 mm | 1.34 m/s, 196° | 302 W/m² | - |
| 1778017071 | 21.67° C | 53% | 1013.8 hPa | 0 mm | 1.34 m/s, 115° | 347 W/m² | - |
| 1778016768 | 21.67° C | 49% | 1013.8 hPa | 0 mm | 2.24 m/s, 189° | 335 W/m² | - |
| 1778016463 | 21.11° C | 49% | 1013.8 hPa | 0 mm | 2.24 m/s, 177° | 322 W/m² | - |
| 1778016161 | 21.67° C | 48% | 1014.2 hPa | 0 mm | 3.58 m/s, 229° | 342 W/m² | - |
| 1778015858 | 21.67° C | 48% | 1013.8 hPa | 0 mm | 3.58 m/s, 264° | 423 W/m² | - |
| 1778015556 | 21.11° C | 47% | 1014.2 hPa | 0 mm | 2.68 m/s, 309° | 455 W/m² | - |
| 1778015252 | 21.11° C | 49% | 1014.2 hPa | 0 mm | 1.79 m/s, 259° | 396 W/m² | - |
| 1778014948 | 21.67° C | 48% | 1014.2 hPa | 0 mm | 0.89 m/s, 290° | 321 W/m² | - |
| 1778014646 | 21.67° C | 46% | 1014.2 hPa | 0 mm | 1.79 m/s, 319° | 403 W/m² | - |
| 1778014344 | 21.67° C | 48% | 1014.2 hPa | 0 mm | 0.45 m/s, 258° | 462 W/m² | - |
| 1778014040 | 21.67° C | 45% | 1014.6 hPa | 0 mm | 4.92 m/s, 250° | 505 W/m² | - |
| 1778013738 | 21.11° C | 46% | 1014.2 hPa | 0 mm | 4.47 m/s, 209° | 580 W/m² | - |
| 1778013435 | 21.11° C | 49% | 1014.2 hPa | 0 mm | 2.68 m/s, 220° | 290 W/m² | - |
| 1778013132 | 21.11° C | 47% | 1014.2 hPa | 0 mm | 2.24 m/s, 259° | 500 W/m² | - |
| 1778012828 | 21.11° C | 47% | 1014.2 hPa | 0 mm | 3.13 m/s, 220° | 435 W/m² | - |
| 1778012524 | 21.11° C | 46% | 1014.2 hPa | 0 mm | 4.47 m/s, 188° | 348 W/m² | - |
| 1778012220 | 21.67° C | 45% | 1014.2 hPa | 0 mm | 3.58 m/s, 149° | 511 W/m² | - |
| 1778011927 | 21.67° C | 44% | 1014.6 hPa | 0 mm | 2.24 m/s, 235° | 315 W/m² | - |
| 1778011617 | 21.67° C | 46% | 1014.6 hPa | 0 mm | 2.24 m/s, 282° | 467 W/m² | - |
| 1778011313 | 21.67° C | 46% | 1014.6 hPa | 0 mm | 2.24 m/s, 337° | 430 W/m² | - |
| 1778011009 | 21.11° C | 45% | 1014.6 hPa | 0 mm | 3.58 m/s, 286° | 470 W/m² | - |
| 1778010706 | 21.67° C | 45% | 1014.6 hPa | 0 mm | 2.68 m/s, 261° | 426 W/m² | - |
* Rain latest hour (hover to see other rain measurements)
** Current wind speed in m/s (hover to see current wind gust speed)